Pilot information for Deblin Military Air Base

[ general | frequencies | runways | weather | notam | navaids | links ]

Caution: This page displays community-maintained data: information may be missing, incorrect, or out of date. Please confirm with an official source before making travel plans.

General information for Deblin Military Air Base

Airport codes: EPDE
Type: regional airport
Scheduled airline service: no
Serves: Dęblin, Lublin, Poland
Latitude: 51.551399 | 51 33.083954 N | N51 33 05
Longitude: 21.893600 | 21 53.616028 E | E021 53 36
Field elevation: 392 ft/119 m MSL
Magnetic variation: 4.3°E

Radio communication frequencies for Deblin Military Air Base

AFIS: 128.5 MHz (INFO)

Members can add and update frequencies.

Runways at Deblin Military Air Base

12/30
8,202 x 197 ft (2,500 x 60 m) — paved — lighted

Members can add and update runway information.

Aviation weather for Deblin Military Air Base

Current conditions (METAR) for Deblin Military Air Base

Closest report is Warsaw Chopin Airport, 50.4 nm (93.3 km) NW. Retrieved 2015/07/02 03:00:

EPWA 020300Z 04006KT CAVOK 16/12 Q1026 NOSIG

Forecast (TAF) for Deblin Military Air Base

Closest forecast is Warsaw Chopin Airport, 50.4 nm (93.3 km) NW. Retrieved 2015/07/01 00:39:

TAF EPPO 012330Z 0200/0224 07008KT CAVOK= TAF EPWA 012330Z 0200/0224 04005KT CAVOK

Notices to Airmen (NOTAM) for Deblin Military Air Base

Please confirm all NOTAMs at the original source! These are for information only, and may be wrong, out of date, or incomplete.

NOTAM B3584/15: Deblin Military Air Base (EPDE)
B3584/15 NOTAMN
Q) EPWW/QFMLC/IV/BO /A /000/999/5133N02154E005
A) EPDE B) 1507032000 C) 1509280330
D) FRI 2000 - MON 0330
E) MET CLOSED.
CREATED: 01 Jul 2015 11:36:00 
SOURCE: EUECYIYN
NOTAM B3579/15: Deblin Military Air Base (EPDE)
B3579/15 NOTAMN
Q) EPWW/QMNLC/IV/NBO/A /000/999/5133N02154E005
A) EPDE B) 1507010800 C) 1507162000
E) APN F CLSD.
CREATED: 01 Jul 2015 07:54:00 
SOURCE: EUECYIYN
NOTAM B3423/15: Deblin Military Air Base (EPDE)
B3423/15 NOTAMR B1650/15
Q) EPWW/QFALT/IV/NBO/A /000/999/5133N02154E005
A) EPDE B) 1506250943 C) 1509250330
E) AERODROME AVBL FOR AKADEMICKI OSRODEK SZKOLENIA LOTNICZEGO AND 
AEROKLUB ORLAT:
FRI 2000 - MON 0330,
MON-FRI 2000-0330.
CREATED: 25 Jun 2015 09:44:00 
SOURCE: EUECYIYN